createdAt,value
2023-04-11T00:04:59.068Z,99753.56
2023-04-11T00:10:05.532Z,99753.56
2023-04-11T00:15:09.836Z,99762.97
2023-04-11T00:20:14.960Z,99749.97
2023-04-11T00:25:19.908Z,99750.78
2023-04-11T00:30:23.053Z,99745.63
2023-04-11T00:35:26.636Z,99742.13
2023-04-11T00:40:31.542Z,99732.56
2023-04-11T00:45:34.942Z,99749.13
2023-04-11T00:50:42.760Z,99753.44
2023-04-11T00:55:47.669Z,99759.28
2023-04-11T01:00:51.711Z,99762.53
2023-04-11T01:05:56.002Z,99750.53
2023-04-11T01:11:01.178Z,99758.47
2023-04-11T01:16:05.281Z,99756.84
2023-04-11T01:21:10.788Z,99751.50
2023-04-11T01:26:16.361Z,99750.75
2023-04-11T01:31:20.009Z,99758.28
2023-04-11T01:36:23.795Z,99753.66
2023-04-11T01:41:31.005Z,99758.53
2023-04-11T01:46:34.791Z,99756.84
2023-04-11T01:51:38.464Z,99749.81
2023-04-11T01:56:43.318Z,99748.84
2023-04-11T02:01:46.566Z,99750.53
2023-04-11T02:06:50.229Z,99745.34
2023-04-11T02:11:55.097Z,99738.50
2023-04-11T02:16:58.382Z,99733.41
2023-04-11T02:22:02.059Z,99725.63
2023-04-11T02:27:07.747Z,99730.16
2023-04-11T02:32:11.454Z,99739.66
2023-04-11T02:37:15.158Z,99742.28
2023-04-11T02:42:20.034Z,99743.28
2023-04-11T02:47:23.302Z,99739.03
2023-04-11T02:52:26.966Z,99740.66
2023-04-11T02:57:31.820Z,99736.81
2023-04-11T03:02:35.528Z,99740.31
2023-04-11T03:07:40.800Z,99756.94
2023-04-11T03:12:45.656Z,99759.75
2023-04-11T03:17:49.021Z,99750.28
2023-04-11T03:22:52.524Z,99750.31
2023-04-11T03:27:57.696Z,99746.19
2023-04-11T03:33:01.939Z,99729.63
2023-04-11T03:38:05.577Z,99735.75
2023-04-11T03:43:10.459Z,99734.84
2023-04-11T03:48:13.713Z,99725.38
2023-04-11T03:53:17.128Z,99722.72
2023-04-11T03:58:22.049Z,99714.16
2023-04-11T04:03:25.381Z,99705.53
2023-04-11T04:08:28.977Z,99714.03
2023-04-11T04:13:34.696Z,99711.56
2023-04-11T04:18:38.190Z,99712.53
2023-04-11T04:23:47.825Z,99704.03
2023-04-11T04:28:54.191Z,99703.19
2023-04-11T04:33:58.800Z,99708.41
2023-04-11T04:39:03.344Z,99694.66
2023-04-11T04:44:09.978Z,99703.41
2023-04-11T04:49:13.457Z,99697.47
2023-04-11T04:54:19.566Z,99693.41
2023-04-11T04:59:24.731Z,99686.69
2023-04-11T05:04:28.394Z,99680.78
2023-04-11T05:09:31.838Z,99696.34
2023-04-11T05:14:36.698Z,99671.38
2023-04-11T05:19:39.891Z,99653.88
2023-04-11T05:24:43.324Z,99673.56
2023-04-11T05:29:48.758Z,99678.50
2023-04-11T05:34:55.980Z,99689.97
2023-04-11T05:40:02.039Z,99687.34
2023-04-11T05:45:09.850Z,99685.75
2023-04-11T05:50:13.404Z,99674.72
2023-04-11T05:55:17.267Z,99685.66
2023-04-11T06:00:23.813Z,99670.63
2023-04-11T06:05:31.422Z,99669.50
2023-04-11T06:10:35.039Z,99658.09
2023-04-11T06:15:39.728Z,99670.25
2023-04-11T06:20:43.411Z,99674.03
2023-04-11T06:25:46.875Z,99667.38
2023-04-11T06:30:52.343Z,99670.59
2023-04-11T06:35:57.022Z,99667.97
2023-04-11T06:41:00.498Z,99658.19
2023-04-11T06:46:06.036Z,99674.59
2023-04-11T06:51:10.718Z,99666.97
2023-04-11T06:56:14.244Z,99659.84
2023-04-11T07:01:20.841Z,99662.72
2023-04-11T07:06:24.665Z,99660.38
2023-04-11T07:11:28.144Z,99651.34
2023-04-11T07:16:34.761Z,99649.63
2023-04-11T07:21:38.484Z,99651.00
2023-04-11T07:26:42.480Z,99645.97
2023-04-11T07:31:47.518Z,99628.84
2023-04-11T07:36:51.475Z,99636.28
2023-04-11T07:41:55.081Z,99639.72
2023-04-11T07:46:59.938Z,99627.81
2023-04-11T07:52:03.556Z,99624.91
2023-04-11T07:57:07.059Z,99621.75
2023-04-11T08:02:12.017Z,99611.00
2023-04-11T08:07:15.777Z,99606.69
2023-04-11T08:12:19.173Z,99612.19
2023-04-11T08:17:28.592Z,99602.44
2023-04-11T08:22:34.415Z,99590.81
2023-04-11T08:27:38.167Z,99592.16
2023-04-11T08:32:43.596Z,99581.94
2023-04-11T08:37:47.165Z,99587.94
2023-04-11T08:42:50.947Z,99580.09
2023-04-11T08:47:56.139Z,99573.97
2023-04-11T08:53:03.061Z,99564.78
2023-04-11T08:58:06.780Z,99564.91
2023-04-11T09:03:13.260Z,99563.50
2023-04-11T09:08:18.146Z,99555.69
2023-04-11T09:13:23.577Z,99560.13
2023-04-11T09:18:36.106Z,99549.56
2023-04-11T09:23:40.378Z,99536.06
2023-04-11T09:28:44.816Z,99530.03
2023-04-11T09:33:56.270Z,99525.00
2023-04-11T09:39:05.148Z,99529.19
2023-04-11T09:44:08.609Z,99512.16
2023-04-11T09:49:13.609Z,99502.03
2023-04-11T09:54:17.640Z,99506.19
2023-04-11T09:59:22.586Z,99496.44
2023-04-11T10:04:28.233Z,99488.13
2023-04-11T10:09:33.715Z,99482.28
2023-04-11T10:14:44.205Z,99481.00
2023-04-11T10:19:50.841Z,99474.16
2023-04-11T10:25:18.052Z,99469.22
2023-04-11T10:31:02.052Z,99447.38
2023-04-11T10:36:10.493Z,99433.41
2023-04-11T10:41:26.610Z,99433.91
2023-04-11T10:46:30.099Z,99422.31
2023-04-11T10:51:35.747Z,99414.72
2023-04-11T10:56:57.628Z,99390.50
2023-04-11T11:02:02.013Z,99411.88
2023-04-11T11:07:08.719Z,99402.06
2023-04-11T11:12:14.260Z,99408.84
2023-04-11T11:17:18.806Z,99403.25
2023-04-11T11:22:26.485Z,99384.47
2023-04-11T11:27:29.991Z,99379.53
2023-04-11T11:32:33.450Z,99375.16
2023-04-11T11:37:38.502Z,99375.50
2023-04-11T11:42:42.588Z,99370.41
2023-04-11T11:47:46.975Z,99370.81
2023-04-11T11:52:51.703Z,99371.28
2023-04-11T11:57:55.167Z,99351.88
2023-04-11T12:03:00.843Z,99356.97
2023-04-11T12:08:07.950Z,99328.06
2023-04-11T12:13:19.794Z,99340.41
2023-04-11T12:18:24.272Z,99331.38
2023-04-11T12:23:28.900Z,99327.19
2023-04-11T12:28:32.293Z,99326.22
2023-04-11T12:33:36.323Z,99319.41
2023-04-11T12:38:41.305Z,99318.09
2023-04-11T12:43:44.784Z,99312.22
2023-04-11T12:48:48.252Z,99305.22
2023-04-11T12:53:53.804Z,99296.50
2023-04-11T12:58:57.558Z,99296.63
2023-04-11T13:04:01.380Z,99288.91
2023-04-11T13:09:07.927Z,99288.97
2023-04-11T13:14:11.516Z,99278.94
2023-04-11T13:19:14.989Z,99280.66
2023-04-11T13:24:26.350Z,99276.91
2023-04-11T13:29:30.173Z,99275.69
2023-04-11T13:34:33.527Z,99277.06
2023-04-11T13:39:38.573Z,99264.06
2023-04-11T13:44:42.170Z,99274.22
2023-04-11T13:49:45.782Z,99261.69
2023-04-11T13:54:50.793Z,99259.75
2023-04-11T13:59:54.229Z,99268.66
2023-04-11T14:04:58.255Z,99262.75
2023-04-11T14:10:03.150Z,99259.59
2023-04-11T14:15:09.213Z,99262.41
2023-04-11T14:20:13.124Z,99261.09
2023-04-11T14:25:18.118Z,99251.56
2023-04-11T14:30:21.741Z,99253.63
2023-04-11T14:35:25.294Z,99253.81
2023-04-11T14:40:30.215Z,99252.31
2023-04-11T14:45:36.188Z,99248.34
2023-04-11T14:50:39.820Z,99249.25
2023-04-11T14:55:44.872Z,99249.59
2023-04-11T15:00:48.372Z,99242.91
2023-04-11T15:05:52.033Z,99235.88
2023-04-11T15:10:56.863Z,99236.22
2023-04-11T15:16:01.634Z,99233.16
2023-04-11T15:21:04.990Z,99228.41
2023-04-11T15:26:10.056Z,99233.22
2023-04-11T15:31:14.889Z,99236.19
2023-04-11T15:36:18.668Z,99234.63
2023-04-11T15:41:23.589Z,99243.44
2023-04-11T15:46:27.295Z,99240.28
2023-04-11T15:51:30.799Z,99232.78
2023-04-11T15:56:35.619Z,99236.69
2023-04-11T16:01:40.510Z,99227.75
2023-04-11T16:06:44.696Z,99239.19
2023-04-11T16:11:49.629Z,99250.00
2023-04-11T16:16:54.113Z,99240.84
2023-04-11T16:21:57.644Z,99243.06
2023-04-11T16:27:02.829Z,99239.06
2023-04-11T16:32:06.588Z,99249.72
2023-04-11T16:37:10.125Z,99252.56
2023-04-11T16:42:16.134Z,99254.66
2023-04-11T16:47:20.605Z,99246.59
2023-04-11T16:52:24.076Z,99254.63
2023-04-11T16:57:29.053Z,99260.19
2023-04-11T17:02:32.726Z,99258.69
2023-04-11T17:07:36.487Z,99264.97
2023-04-11T17:12:41.501Z,99271.19
2023-04-11T17:17:45.035Z,99271.44
2023-04-11T17:22:48.546Z,99277.69
2023-04-11T17:27:53.357Z,99274.31
2023-04-11T17:32:57.017Z,99276.22
2023-04-11T17:38:00.843Z,99275.50
2023-04-11T17:43:05.807Z,99274.63
2023-04-11T17:48:09.389Z,99285.19
2023-04-11T17:53:12.999Z,99287.97
2023-04-11T17:58:18.158Z,99282.88
2023-04-11T18:03:23.138Z,99275.19
2023-04-11T18:08:46.908Z,99267.44
2023-04-11T18:13:52.452Z,99270.94
2023-04-11T18:18:56.085Z,99282.31
2023-04-11T18:23:59.570Z,99276.34
2023-04-11T18:29:04.545Z,99275.47
2023-04-11T18:34:08.740Z,99272.94
2023-04-11T18:39:12.905Z,99274.69
2023-04-11T18:44:17.817Z,99261.72
2023-04-11T18:49:21.780Z,99257.38
2023-04-11T18:54:25.262Z,99260.00
2023-04-11T18:59:32.603Z,99266.06
2023-04-11T19:04:38.943Z,99252.28
2023-04-11T19:09:42.503Z,99256.59
2023-04-11T19:14:47.321Z,99254.88
2023-04-11T19:19:50.547Z,99248.81
2023-04-11T19:24:54.130Z,99249.69
2023-04-11T19:29:59.166Z,99253.19
2023-04-11T19:35:03.198Z,99254.91
2023-04-11T19:40:08.390Z,99258.38
2023-04-11T19:45:13.692Z,99260.09
2023-04-11T19:50:17.204Z,99259.22
2023-04-11T19:55:21.275Z,99260.06
2023-04-11T20:00:27.301Z,99257.47
2023-04-11T20:05:32.243Z,99257.44
2023-04-11T20:10:37.072Z,99261.66
2023-04-11T20:15:41.737Z,99254.75
2023-04-11T20:20:45.597Z,99256.41
2023-04-11T20:25:49.435Z,99263.28
2023-04-11T20:30:54.483Z,99265.81
2023-04-11T20:35:58.289Z,99264.91
2023-04-11T20:41:04.016Z,99252.72
2023-04-11T20:46:09.652Z,99267.38
2023-04-11T20:51:15.123Z,99264.72
2023-04-11T20:56:18.585Z,99265.53
2023-04-11T21:01:23.586Z,99268.06
2023-04-11T21:06:26.993Z,99274.94
2023-04-11T21:11:30.576Z,99270.47
2023-04-11T21:16:35.968Z,99273.81
2023-04-11T21:21:40.968Z,99259.06
2023-04-11T21:26:44.144Z,99266.81
2023-04-11T21:31:48.982Z,99277.03
2023-04-11T21:36:52.280Z,99267.50
2023-04-11T21:41:55.688Z,99262.22
2023-04-11T21:47:01.022Z,99265.59
2023-04-11T21:52:04.849Z,99269.81
2023-04-11T21:57:08.369Z,99268.88
2023-04-11T22:02:13.434Z,99273.19
2023-04-11T22:07:18.496Z,99277.41
2023-04-11T22:12:22.005Z,99273.91
2023-04-11T22:17:26.929Z,99267.78
2023-04-11T22:22:32.461Z,99266.00
2023-04-11T22:27:35.616Z,99266.66
2023-04-11T22:32:41.049Z,99266.50
2023-04-11T22:37:45.576Z,99259.50
2023-04-11T22:42:52.041Z,99262.06
2023-04-11T22:48:00.088Z,99260.28
2023-04-11T22:53:03.800Z,99262.75
2023-04-11T22:58:08.053Z,99265.25
2023-04-11T23:03:14.128Z,99266.09
2023-04-11T23:08:17.657Z,99265.13
2023-04-11T23:13:21.087Z,99252.94
2023-04-11T23:18:26.013Z,99262.31
2023-04-11T23:23:29.283Z,99254.50
2023-04-11T23:28:32.719Z,99226.47
2023-04-11T23:33:37.545Z,99261.06
2023-04-11T23:38:40.788Z,99261.19
2023-04-11T23:43:44.213Z,99261.91
2023-04-11T23:48:49.120Z,99259.28
2023-04-11T23:53:52.395Z,99267.97
2023-04-11T23:58:56.000Z,99269.59
